createdAt,value
2022-12-25T00:04:32.805Z,8.18
2022-12-25T00:09:36.581Z,8.18
2022-12-25T00:14:40.471Z,8.17
2022-12-25T00:19:45.581Z,8.16
2022-12-25T00:24:49.725Z,8.20
2022-12-25T00:29:53.477Z,8.22
2022-12-25T00:34:58.595Z,8.24
2022-12-25T00:40:02.330Z,8.23
2022-12-25T00:45:06.790Z,8.23
2022-12-25T00:50:12.410Z,8.20
2022-12-25T00:55:16.323Z,8.20
2022-12-25T01:00:20.515Z,8.19
2022-12-25T01:05:25.645Z,8.21
2022-12-25T01:10:29.379Z,8.22
2022-12-25T01:15:33.300Z,8.19
2022-12-25T01:20:38.424Z,8.22
2022-12-25T01:25:42.291Z,8.25
2022-12-25T01:30:49.843Z,8.24
2022-12-25T01:35:55.009Z,8.28
2022-12-25T01:40:58.746Z,8.28
2022-12-25T01:46:03.880Z,8.30
2022-12-25T01:51:24.385Z,8.34
2022-12-25T01:56:30.247Z,8.35
2022-12-25T02:01:34.311Z,8.40
2022-12-25T02:06:39.437Z,8.43
2022-12-25T02:11:58.396Z,8.43
2022-12-25T02:17:08.447Z,8.44
2022-12-25T02:22:22.548Z,8.42
2022-12-25T02:28:01.273Z,8.47
2022-12-25T02:33:28.264Z,8.46
2022-12-25T02:38:34.990Z,8.48
2022-12-25T02:44:00.068Z,8.42
2022-12-25T02:49:26.818Z,8.39
2022-12-25T02:54:52.721Z,8.39
2022-12-25T03:00:18.500Z,8.37
2022-12-25T03:05:43.961Z,8.33
2022-12-25T03:11:12.693Z,8.23
2022-12-25T03:16:34.640Z,8.18
2022-12-25T03:21:57.573Z,8.14
2022-12-25T03:27:01.374Z,8.12
2022-12-25T03:32:17.144Z,8.08
2022-12-25T03:37:48.543Z,8.06
2022-12-25T03:43:32.203Z,8.03
2022-12-25T03:48:57.359Z,8.06
2022-12-25T03:54:24.718Z,8.11
2022-12-25T03:59:46.100Z,8.13
2022-12-25T04:05:22.313Z,8.20
2022-12-25T04:10:45.029Z,8.24
2022-12-25T04:16:06.650Z,8.23
2022-12-25T04:21:28.006Z,8.24
2022-12-25T04:26:50.727Z,8.25
2022-12-25T04:32:11.969Z,8.30
2022-12-25T04:37:15.813Z,8.32
2022-12-25T04:42:20.956Z,8.37
2022-12-25T04:47:24.673Z,8.36
2022-12-25T04:52:28.521Z,8.36
2022-12-25T04:57:33.700Z,8.34
2022-12-25T05:02:37.693Z,8.33
2022-12-25T05:07:41.505Z,8.31
2022-12-25T05:12:46.652Z,8.35
2022-12-25T05:17:51.781Z,8.33
2022-12-25T05:22:55.481Z,8.38
2022-12-25T05:28:00.688Z,8.43
2022-12-25T05:33:04.778Z,8.43
2022-12-25T05:38:09.376Z,8.43
2022-12-25T05:43:14.496Z,8.52
2022-12-25T05:48:18.451Z,8.53
2022-12-25T05:53:22.210Z,8.56
2022-12-25T05:58:27.280Z,8.60
2022-12-25T06:03:31.217Z,8.60
2022-12-25T06:08:35.414Z,8.63
2022-12-25T06:13:40.665Z,8.62
2022-12-25T06:18:47.031Z,8.62
2022-12-25T06:23:50.797Z,8.60
2022-12-25T06:28:55.976Z,8.64
2022-12-25T06:33:59.700Z,8.63
2022-12-25T06:39:03.497Z,8.68
2022-12-25T06:44:08.614Z,8.64
2022-12-25T06:49:12.376Z,8.67
2022-12-25T06:54:16.221Z,8.69
2022-12-25T06:59:21.409Z,8.71
2022-12-25T07:04:32.044Z,8.71
2022-12-25T07:09:35.917Z,8.67
2022-12-25T07:14:41.358Z,8.69
2022-12-25T07:19:45.660Z,8.73
2022-12-25T07:24:49.408Z,8.75
2022-12-25T07:29:54.542Z,8.77
2022-12-25T07:34:58.319Z,8.73
2022-12-25T07:40:02.135Z,8.78
2022-12-25T07:45:08.123Z,8.81
2022-12-25T07:50:12.188Z,8.84
2022-12-25T07:55:16.028Z,8.85
2022-12-25T08:00:21.896Z,8.87
2022-12-25T08:05:25.625Z,8.87
2022-12-25T08:10:29.361Z,8.86
2022-12-25T08:15:34.463Z,8.88
2022-12-25T08:20:38.625Z,8.90
2022-12-25T08:25:42.373Z,8.86
2022-12-25T08:30:47.506Z,8.88
2022-12-25T08:35:51.293Z,8.90
2022-12-25T08:40:55.065Z,8.85
2022-12-25T08:46:00.236Z,8.85
2022-12-25T08:51:06.058Z,8.89
2022-12-25T08:56:10.020Z,8.76
2022-12-25T09:01:15.420Z,8.88
2022-12-25T09:06:19.344Z,8.90
2022-12-25T09:11:24.107Z,8.88
2022-12-25T09:16:29.367Z,8.89
2022-12-25T09:21:33.191Z,8.89
2022-12-25T09:26:38.345Z,8.86
2022-12-25T09:31:43.628Z,8.84
2022-12-25T09:36:47.435Z,8.87
2022-12-25T09:41:56.896Z,8.84
2022-12-25T09:47:06.251Z,8.90
2022-12-25T09:52:15.903Z,8.94
2022-12-25T09:57:19.728Z,8.96
2022-12-25T10:02:40.567Z,9.03
2022-12-25T10:07:55.360Z,9.03
2022-12-25T10:13:09.752Z,8.99
2022-12-25T10:18:39.584Z,8.99
2022-12-25T10:23:47.893Z,8.99
2022-12-25T10:28:57.183Z,8.96
2022-12-25T10:34:03.141Z,8.91
2022-12-25T10:39:06.870Z,8.88
2022-12-25T10:44:15.772Z,8.93
2022-12-25T10:49:22.983Z,8.92
2022-12-25T10:54:29.235Z,8.96
2022-12-25T10:59:36.705Z,9.02
2022-12-25T11:04:42.030Z,9.01
2022-12-25T11:09:51.076Z,9.03
2022-12-25T11:14:56.641Z,9.04
2022-12-25T11:20:03.537Z,9.02
2022-12-25T11:25:14.153Z,9.01
2022-12-25T11:30:18.364Z,9.10
2022-12-25T11:35:29.298Z,9.17
2022-12-25T11:40:45.841Z,9.17
2022-12-25T11:45:54.944Z,9.18
2022-12-25T11:51:02.590Z,9.11
2022-12-25T11:56:10.835Z,9.11
2022-12-25T12:01:18.367Z,9.16
2022-12-25T12:06:30.656Z,9.16
2022-12-25T12:11:38.994Z,9.13
2022-12-25T12:16:42.853Z,9.08
2022-12-25T12:21:50.634Z,9.07
2022-12-25T12:27:03.418Z,9.17
2022-12-25T12:32:20.396Z,9.17
2022-12-25T12:37:31.360Z,9.17
2022-12-25T12:42:40.400Z,9.26
2022-12-25T12:47:47.699Z,9.27
2022-12-25T12:52:53.009Z,9.29
2022-12-25T12:58:00.067Z,9.21
2022-12-25T13:03:24.695Z,9.14
2022-12-25T13:08:43.659Z,9.14
2022-12-25T13:13:49.605Z,9.16
2022-12-25T13:18:55.108Z,9.24
2022-12-25T13:24:02.223Z,9.24
2022-12-25T13:29:11.341Z,9.20
2022-12-25T13:34:24.388Z,9.26
2022-12-25T13:39:29.752Z,9.27
2022-12-25T13:44:48.398Z,9.30
2022-12-25T13:49:54.225Z,9.26
2022-12-25T13:55:02.356Z,9.25
2022-12-25T14:00:08.343Z,9.26
2022-12-25T14:05:31.311Z,9.27
2022-12-25T14:10:40.359Z,9.28
2022-12-25T14:15:47.957Z,9.28
2022-12-25T14:21:01.094Z,9.30
2022-12-25T14:26:06.485Z,9.30
2022-12-25T14:31:13.315Z,9.31
2022-12-25T14:36:17.372Z,9.30
2022-12-25T14:41:33.534Z,9.35
2022-12-25T14:46:37.820Z,9.40
2022-12-25T14:51:44.090Z,9.42
2022-12-25T14:56:50.834Z,9.45
2022-12-25T15:01:58.404Z,9.44
2022-12-25T15:07:07.304Z,9.44
2022-12-25T15:12:12.552Z,9.45
2022-12-25T15:17:26.315Z,9.45
2022-12-25T15:22:47.786Z,9.46
2022-12-25T15:27:55.484Z,9.46
2022-12-25T15:32:59.206Z,9.46
2022-12-25T15:38:02.997Z,9.45
2022-12-25T15:43:20.862Z,9.43
2022-12-25T15:48:26.201Z,9.40
2022-12-25T15:53:29.912Z,9.41
2022-12-25T15:58:35.053Z,9.40
2022-12-25T16:03:38.868Z,9.39
2022-12-25T16:08:43.314Z,9.38
2022-12-25T16:13:48.464Z,9.39
2022-12-25T16:18:52.199Z,9.37
2022-12-25T16:23:55.942Z,9.35
2022-12-25T16:29:06.763Z,9.31
2022-12-25T16:34:11.290Z,9.30
2022-12-25T16:39:15.046Z,9.27
2022-12-25T16:44:20.184Z,9.27
2022-12-25T16:49:23.976Z,9.27
2022-12-25T16:54:27.791Z,9.22
2022-12-25T16:59:34.646Z,9.17
2022-12-25T17:04:39.375Z,9.15
2022-12-25T17:09:44.681Z,9.14
2022-12-25T17:14:49.880Z,9.10
2022-12-25T17:19:53.588Z,9.12
2022-12-25T17:24:57.358Z,9.16
2022-12-25T17:30:02.487Z,9.17
2022-12-25T17:35:06.996Z,9.16
2022-12-25T17:40:11.484Z,9.12
2022-12-25T17:45:17.594Z,9.13
2022-12-25T17:50:21.532Z,9.11
2022-12-25T17:55:25.257Z,9.14
2022-12-25T18:00:30.407Z,9.14
2022-12-25T18:05:36.586Z,9.14
2022-12-25T18:10:42.919Z,9.09
2022-12-25T18:15:48.057Z,9.13
2022-12-25T18:20:54.373Z,9.07
2022-12-25T18:26:01.508Z,9.05
2022-12-25T18:31:10.350Z,9.03
2022-12-25T18:36:16.310Z,8.96
2022-12-25T18:41:20.942Z,8.99
2022-12-25T18:46:27.916Z,9.03
2022-12-25T18:51:36.840Z,9.01
2022-12-25T18:56:41.024Z,9.01
2022-12-25T19:01:47.329Z,9.05
2022-12-25T19:06:52.348Z,9.06
2022-12-25T19:11:56.781Z,9.07
2022-12-25T19:17:01.915Z,9.07
2022-12-25T19:22:07.292Z,8.98
2022-12-25T19:27:11.188Z,9.01
2022-12-25T19:32:16.291Z,9.01
2022-12-25T19:37:20.080Z,8.96
2022-12-25T19:42:23.835Z,8.99
2022-12-25T19:47:28.985Z,9.01
2022-12-25T19:52:32.820Z,9.02
2022-12-25T19:57:36.565Z,9.01
2022-12-25T20:02:41.837Z,9.05
2022-12-25T20:07:45.702Z,9.04
2022-12-25T20:12:49.458Z,8.97
2022-12-25T20:17:55.396Z,8.95
2022-12-25T20:22:59.189Z,8.89
2022-12-25T20:28:03.121Z,8.94
2022-12-25T20:33:08.273Z,8.94
2022-12-25T20:38:12.097Z,8.95
2022-12-25T20:43:15.863Z,8.98
2022-12-25T20:48:21.050Z,8.97
2022-12-25T20:53:26.282Z,8.96
2022-12-25T20:58:30.242Z,8.94
2022-12-25T21:03:36.289Z,8.96
2022-12-25T21:08:41.001Z,8.99
2022-12-25T21:13:46.718Z,8.97
2022-12-25T21:18:54.017Z,9.00
2022-12-25T21:23:57.996Z,9.03
2022-12-25T21:29:03.361Z,9.04
2022-12-25T21:34:08.534Z,9.04
2022-12-25T21:39:12.510Z,9.04
2022-12-25T21:44:16.331Z,9.01
2022-12-25T21:49:35.871Z,9.02
2022-12-25T21:54:39.629Z,9.04
2022-12-25T21:59:43.358Z,9.01
2022-12-25T22:04:48.450Z,9.01
2022-12-25T22:09:52.708Z,9.01
2022-12-25T22:15:02.574Z,8.94
2022-12-25T22:20:11.678Z,9.00
2022-12-25T22:25:17.254Z,9.03
2022-12-25T22:30:23.204Z,9.06
2022-12-25T22:35:28.298Z,9.04
2022-12-25T22:40:32.084Z,9.01
2022-12-25T22:45:35.880Z,9.04
2022-12-25T22:50:41.033Z,9.05
2022-12-25T22:55:46.814Z,9.01
2022-12-25T23:00:50.577Z,8.95
2022-12-25T23:05:56.491Z,8.92
2022-12-25T23:11:03.295Z,8.89
2022-12-25T23:16:13.610Z,8.82
2022-12-25T23:21:42.544Z,8.84
2022-12-25T23:26:46.304Z,8.79
2022-12-25T23:31:53.554Z,8.73
2022-12-25T23:36:58.898Z,8.77
2022-12-25T23:42:02.848Z,8.77
2022-12-25T23:47:06.733Z,8.78
2022-12-25T23:52:13.941Z,8.76
2022-12-25T23:57:17.714Z,8.76
